Terminal Aerodrome Forecast
Issued by NWS

Home | Current Version | Previous Version | Text Only | Print | Product List | Glossary On
Versions: 1 2 3 4 5 6 7 8 9 10 11 12 13 14 15 16 17 18
703
FTUS43 KLSX 261442 AAA
TAFSUS
TAF AMD
KSUS 261442Z 2615/2712 VRB04KT P6SM BKN020
     FM261700 VRB04KT P6SM BKN035
     FM262100 06006KT P6SM SCT040
     FM270900 00000KT 5SM BR SKC=

USA.gov is the U.S. government's official web portal to all federal, state and local government web resources and services.